Bemidji Regional Airport Bemidji US
ICAO: KBJI
IATA: BJI
Category: Medium
Scheduled Services: No

Elevation: 1391 ft
TransAlt. 18000 ft.

Airport Communications:
AWOS 3:119.275
MINNEAPOLIS CNTR:134.75
PRINCETON RDO:123.6
CTAF/UNICOM:122.8

KBJI Zoom In..

If Map Doesn't Load, Click Here

Runways:

(A) RW 07 length 5700 ft width 150 ft
---- / hdg 70

(B) RW 13 length 7004 ft width 150 ft
---- / hdg 130

(C) RW 25 length 5700 ft width 150 ft
ILS 109.35 / hdg 250

(D) RW 31 length 7004 ft width 150 ft
ILS 111.90 / hdg 310

Location; KBJI
Day. 21 / Time. 15.55 Zulu
* Altimeter: 30.11
* Temperature: 09° c. 48.2°f.
* Wind from: 320° Speed 13 kn with Gusts up to 17 kn.
Dewpoint: 05° c.
Visibility: 10 Statute Miles.
Clouds: Broken 1500 ft.
Clouds: Broken 2000 ft.
Clouds: Broken 2900 ft.

KBJI 211555Z AUTO 32013G17KT 10SM BKN015 BKN020 BKN029 09/05 A3011 RMK AO2 T00870054


Wind From 320°
Speed 13 kn.

 
 
jpsmedia.com for Web Design worldairports.se 2018   terms of use